フェアバンクス国際空港の過去48時間の天気

フェアバンクス国際空港 (Fairbanks, Fairbanks International Airport)

現在時刻: 9/22 13:24 AKDT (9/22 21:24 UTC) 以下の時間は現地時間です。

過去48時間のMETAR気象情報
時間 風向 風速(m/s) 視程 気温(℃) 湿度(%) 気圧(hPa) 天気現象
22 12:53 北東 2 10km以上 6.1 62 1003.9
22 11:53 東北東 2 10km以上 5 67 1004
22 10:53 静穏 0 10km以上 3.9 76 1004.2
22 09:53 北東 2 10km以上 1.7 85 1004
22 08:53 2 10km以上 0 88 1003.9 散在した霧
22 07:53 静穏 0 10km以上 -1.1 88 1003.6 散在した霧
22 07:34 静穏 0 10km以上 -0.6 92 1003 散在した霧
22 06:53 静穏 0 10km以上 0 88 1003.6
22 05:53 静穏 0 10km以上 1.1 85 1003.4
22 04:53 南南西 2 10km以上 1.7 85 1003.4
22 03:53 南南西 2 10km以上 2.2 85 1003.3
22 02:53 2 10km以上 2.2 85 1002.9
22 01:53 南南西 3 10km以上 2.2 85 1002.7
22 00:53 南南西 2 10km以上 2.8 85 1002.4
21 23:53 南南西 2 10km以上 3.9 86 1002.1
21 22:53 南西 2 10km以上 4.4 83 1001.7
21 21:53 不定 2 10km以上 4.4 86 1001.2
21 20:53 南西 3 10km以上 4.4 86 1000.7
21 20:28 南南西 4 10km以上 4.4 86 1000
21 19:53 南南西 3 10km以上 5 86 1000.2
21 18:53 南南西 2 10km以上 5 86 999.8 弱い雨
21 18:41 南南西 2 10km以上 5 89 999 弱い雨
21 17:53 不定 2 10km以上 5 82 999.6 弱い雨
21 16:53 西南西 4 10km以上 5 79 999.3
21 15:53 西南西 4 10km以上 5 82 998.8
21 14:53 南西 4 10km以上 5 82 998.2 もや
21 13:53 南西 4 10km以上 5 82 997.6 弱い雨 もや
21 12:53 南西 4 10km以上 5 82 997 もや
21 11:53 南西 2 10km以上 4.4 89 996.3 弱い雨 もや
21 10:53 南西 3 10km以上 3.3 92 995.4 弱い雨 もや
21 09:53 南西 4 10km以上 3.9 86 994.7 弱い雨 もや
21 08:53 西南西 7 10km以上 3.3 89 994 弱い雨 もや
21 07:53 西南西 3 8050m 3.9 89 993.2 弱い雨 もや
21 06:53 西南西 4 10km以上 4.4 89 992.2 弱い雨
21 06:18 南西 3 10km以上 4.4 93 991 弱い雨
21 05:53 南西 4 10km以上 5 89 991.3 弱い雨
21 04:53 西南西 7 6450m 5.6 89 990.2 弱い雨 もや
21 04:19 西南西 5 6450m 6.1 86 989 弱い雨 もや
21 03:53 西南西 5 6450m 6.1 89 989.4 弱い雨 もや
21 03:27 西 4 10km以上 6.7 85 989 弱い雨 もや
21 02:53 3 10km以上 6.1 89 988.9 弱い雨 もや
21 02:36 西南西 3 10km以上 6.7 89 988 弱い雨
21 01:53 南西 2 10km以上 6.7 93 988 弱い雨 もや
21 01:46 南西 2 10km以上 6.7 93 988 弱い雨 もや
21 00:53 南南西 2 10km以上 7.2 93 987.5 弱い雨
20 23:58 南南西 2 10km以上 8.3 90 987 弱い雨
20 23:53 2 10km以上 8.3 86 987 弱い雨
20 22:53 北北西 2 10km以上 8.9 83 986.8 弱い雨
20 21:53 北北西 3 10km以上 8.9 86 986.5 弱い雨
20 20:53 北北西 3 10km以上 9.4 83 986.2 弱い雨
20 19:53 北西 2 10km以上 10 83 986.2
20 18:53 静穏 0 10km以上 10.6 79 986.4 弱い雨
20 17:53 4 10km以上 11.1 77 986.6
20 16:53 4 10km以上 11.7 71 986.8 弱い雨
20 15:53 4 10km以上 11.1 77 987.6 弱い雨
20 14:53 5 10km以上 11.1 77 988.5
20 13:53 4 10km以上 10.6 77 989.3 弱い雨
PAFA 222053Z 05003KT 10SM FEW014 FEW140 SCT200 06/M01 A2962 RMK AO2 SLP039 T00611006 58001 $
PAFA 221953Z 07003KT 10SM FEW012 FEW130 SCT200 05/M01 A2963 RMK AO2 SLP040 T00501006 $
PAFA 221853Z 00000KT 10SM FEW012 FEW090 SCT140 04/00 A2963 RMK AO2 SLP042 T00390000 $
PAFA 221753Z 04004KT 10SM FEW006 FEW095 SCT140 02/M01 A2963 RMK AO2 SLP040 T00171006 10022 21011 53004 $
PAFA 221653Z 35003KT 10SM BCFG FEW000 FEW095 SCT140 00/M02 A2962 RMK AO2 SLP039 BCFG W-NW FG FEW000 T00001017 $
PAFA 221553Z 00000KT 10SM BCFG FEW000 SCT095 SCT140 M01/M03 A2962 RMK AO2 SLP036 BCFG NW FG FEW000 T10111028 $
PAFA 221534Z COR 00000KT 10SM BCFG FEW000 SCT095 BKN140 M01/M02 A2962 RMK AO2 BCFG N S-W FG FEW000 VIS LWR S-W T10061017 $
PAFA 221453Z 00000KT 10SM SCT080 BKN095 BKN140 00/M02 A2962 RMK AO2 SLP036 T00001017 53003 $
PAFA 221353Z 00000KT 10SM FEW080 SCT095 BKN140 01/M01 A2961 RMK AO2 SLP034 T00111011 $
PAFA 221253Z 20003KT 10SM FEW080 BKN090 BKN100 02/M01 A2961 RMK AO2 SLP034 T00171006 $
PAFA 221153Z 20004KT 10SM SCT080 BKN090 BKN110 02/00 A2961 RMK AO2 SLP033 70008 T00220000 10044 20017 53009 $
PAFA 221053Z 19003KT 10SM FEW075 SCT100 BKN190 02/00 A2959 RMK AO2 SLP029 T00220000 $
PAFA 220953Z 20006KT 10SM FEW075 SCT100 BKN150 02/00 A2959 RMK AO2 SLP027 T00220000 $
PAFA 220853Z COR 20004KT 10SM FEW070 SCT085 BKN200 03/01 A2958 RMK AO2 SLP024 T00280006 400720028 51012 $
PAFA 220753Z 21004KT 10SM SCT045 BKN060 OVC075 04/02 A2957 RMK AO2 SLP021 T00390017 $
PAFA 220653Z 22003KT 10SM SCT045 OVC065 04/02 A2956 RMK AO2 SLP017 T00440017 $
PAFA 220553Z VRB04KT 10SM FEW037 BKN047 OVC065 04/02 A2954 RMK AO2 SLP012 60001 T00440022 10056 20044 53013 $
PAFA 220453Z 22005KT 10SM FEW028 BKN038 OVC047 04/02 A2953 RMK AO2 SLP007 T00440022 $
PAFA 220428Z 20007KT 10SM FEW012 SCT028 OVC037 04/02 A2952 RMK AO2 T00440022 $
PAFA 220353Z 21006KT 10SM FEW012 BKN026 OVC045 05/03 A2952 RMK AO2 RAE19 SLP002 P0000 T00500028 $
PAFA 220253Z 21004KT 10SM -RA FEW011 BKN016 OVC025 05/03 A2951 RMK AO2 SLP998 P0001 60001 T00500028 51009 $
PAFA 220241Z 20003KT 10SM -RA SCT016 BKN025 OVC035 05/03 A2951 RMK AO2 P0001 T00500033 $
PAFA 220153Z VRB04KT 10SM -RA FEW022 BKN037 OVC060 05/02 A2950 RMK AO2 RAB51 SLP996 P0000 T00500022 $
PAFA 220053Z 25008KT 10SM FEW015 BKN022 OVC034 05/02 A2949 RMK AO2 SLP993 T00500017 $
PAFA 212353Z 24008KT 8SM SCT013 BKN017 OVC030 05/02 A2948 RMK AO2 SLP988 60001 T00500022 10056 20033 51018 $
PAFA 212253Z 23008G16KT 180V260 6SM BR SCT013 BKN017 OVC030 05/02 A2946 RMK AO2 RAE25 SLP982 P0000 T00500022 $
PAFA 212153Z 23007G14KT 6SM -RA BR SCT013 BKN018 OVC030 05/02 A2944 RMK AO2 RAB42 SLP976 P0000 T00500022 $
PAFA 212053Z 23008KT 160V260 6SM BR BKN015 BKN025 OVC040 05/02 A2942 RMK AO2 RAE25 SLP970 P0000 60001 T00500022 53022 $
PAFA 211953Z 23004KT 6SM -RA BR BKN014 BKN025 OVC037 04/03 A2940 RMK AO2 SLP963 P0000 T00440028 $
PAFA 211853Z 23006KT 6SM -RA BR BKN012 BKN023 OVC037 03/02 A2938 RMK AO2 SLP954 P0001 T00330022 $
PAFA 211753Z 23007KT 190V250 6SM -RA BR BKN011 BKN018 OVC040 04/02 A2936 RMK AO2 SLP947 P0000 60006 T00390017 10061 20033 51023 $
PAFA 211653Z 24013G16KT 6SM -RA BR SCT012 BKN024 OVC040 03/02 A2934 RMK AO2 SLP940 P0000 T00330017 $
PAFA 211553Z 24006G15KT 5SM -RA BR BKN012 BKN020 OVC040 04/02 A2931 RMK AO2 SLP932 P0004 T00390022 $
PAFA 211453Z 24007KT 9SM -RA SCT009 BKN012 OVC033 04/03 A2929 RMK AO2 SLP922 P0001 60002 T00440028 53028 $
PAFA 211418Z 23006KT 7SM -RA SCT009 BKN012 OVC033 04/03 A2927 RMK AO2 P0000 T00440033 $
PAFA 211353Z 23007KT 190V260 10SM -RA BKN012 BKN033 OVC045 05/03 A2926 RMK AO2 SLP913 P0001 T00500033 $
PAFA 211253Z 24014G19KT 4SM -RA BR BKN012 BKN028 OVC045 06/04 A2923 RMK AO2 SLP902 P0000 T00560039 $
PAFA 211219Z 24010G17KT 4SM -RA BR BKN012 BKN025 OVC045 06/04 A2921 RMK AO2 P0000 T00610039 $
PAFA 211153Z 25010KT 4SM -RA BR FEW012 BKN025 OVC045 06/04 A2920 RMK AO2 SLP894 P0002 60007 70010 T00610044 10089 20061 51018 $
PAFA 211127Z 27008KT 6SM -RA BR SCT012 BKN022 OVC035 07/04 A2920 RMK AO2 VIS LWR N-NE P0000 T00670044 $
PAFA 211053Z VRB05KT 6SM -RA BR BKN009 BKN015 OVC047 06/04 A2919 RMK AO2 SLP889 VIS LWR N-NE P0001 T00610044 $
PAFA 211036Z 24005KT 8SM -RA SCT009 BKN015 OVC047 07/05 A2918 RMK AO2 P0000 T00670050 $
PAFA 210953Z 22004KT 6SM -RA BR BKN009 BKN015 OVC047 07/06 A2916 RMK AO2 SLP880 P0002 T00670056 $
PAFA 210946Z 22004KT 6SM -RA BR BKN009 BKN014 OVC080 07/06 A2916 RMK AO2 P0001 T00670056 $
PAFA 210853Z 20004KT 10SM -RA BKN014 BKN037 OVC100 07/06 A2915 RMK AO2 SLP875 P0000 60002 T00720061 401170067 53010 $
PAFA 210758Z 20003KT 10SM -RA BKN014 BKN023 OVC037 08/07 A2914 RMK AO2 P0000 T00830067 $
PAFA 210753Z 18003KT 10SM -RA BKN016 BKN023 OVC037 08/06 A2913 RMK AO2 SLP870 P0001 T00830061
PAFA 210653Z 34004KT 10SM -RA FEW040 OVC055 09/06 A2913 RMK AO2 SLP868 P0001 T00890061
PAFA 210553Z 34005KT 10SM -RA FEW040 OVC055 09/07 A2912 RMK AO2 SLP865 P0001 60001 T00890067 10117 20089 53001
PAFA 210453Z 34006KT 10SM -RA BKN050 BKN075 OVC100 09/07 A2911 RMK AO2 RAB09 SLP862 P0000 T00940067
PAFA 210353Z 31004KT 10SM FEW033 BKN050 OVC060 10/07 A2911 RMK AO2 RAE48 SLP862 P0000 T01000072
PAFA 210253Z 00000KT 10SM -RA BKN055 OVC065 11/07 A2911 RMK AO2 RAB00 SLP864 P0000 60000 T01060072 56012
PAFA 210153Z 36008KT 10SM BKN055 OVC065 11/07 A2912 RMK AO2 RAE39 SLP866 PRSNT WX VCSH NE E-SW P0000 T01110072
PAFA 210053Z 35008KT 10SM -RA FEW011 BKN050 OVC070 12/07 A2913 RMK AO2 SLP868 P0000 T01170067
PAFA 202353Z 01008KT 10SM -RA FEW011 BKN055 OVC070 11/07 A2915 RMK AO2 RAB47 SLP876 P0000 60002 T01110072 10117 20083 58023
PAFA 202253Z 35009KT 10SM FEW011 BKN055 OVC070 11/07 A2918 RMK AO2 RAE51 SLP885 SH DSNT E P0001 T01110072
PAFA 202153Z 36007KT 10SM -RA BKN060 OVC075 11/07 A2920 RMK AO2 RAB13E33B52 SLP893 P0000 T01060067